Aviation Digital Data Service (ADDS)

Output produced by METARs form (0317 UTC 31 March 2015)
found at http://aviationweather.gov/adds/metars/
 
KFRG 310253Z AUTO 29011G19KT 10SM BKN080 08/M02 A2986 RMK AO2 SLP113 T00781022 53022
KISP 310256Z 29015G21KT 10SM SCT080 SCT100 08/M03 A2984 RMK AO2 SLP104 T00781028 53018
KISP 310158Z 3102/3124 29011KT P6SM SCT050 BKN100 
     TEMPO 3102/3104 30012G21KT -SHRA BKN050 BKN100 
     FM310500 27007KT P6SM SKC 
     FM311500 25007KT P6SM SCT040 SCT150 
     FM311800 22006KT P6SM SCT040 BKN100 
     FM312100 VRB04KT 5SM -RA BR BKN015 OVC050
       
KJFK 310251Z 32017G22KT 10SM BKN080 09/M02 A2988 RMK AO2 PK WND 31028/0155 SLP117 T00891022 51023
KJFK 310157Z 3102/0106 29010G17KT P6SM SCT050 BKN100 
     TEMPO 3102/3103 31014G26KT -SHRA BKN050 BKN100 
     FM310500 27008KT P6SM SKC 
     FM311500 25008KT P6SM SCT040 SCT150 
     FM311800 22006KT P6SM SCT040 BKN100 
     FM312000 VRB05KT 5SM -RA BR BKN015 OVC050 
     FM010000 03009KT 2SM -RASN BR OVC010 
     FM010300 34010KT P6SM SCT010 OVC040
       
KBDR 310252Z AUTO 27009KT 10SM BKN065 07/M01 A2984 RMK AO2 SLP103 T00721011 51017
KBDR 310159Z 3102/3124 28010KT P6SM SCT050 BKN100 
     TEMPO 3102/3104 30012G21KT -SHRA BKN050 BKN100 
     FM310500 28006KT P6SM SKC 
     FM311500 25007KT P6SM SCT040 SCT150 
     FM311800 22006KT P6SM SCT040 BKN100 
     FM312100 VRB04KT 5SM -RA BR BKN015 OVC050